Time;durP1;ratioP1;P1;durP2;ratioP2;P2;SDS_P1;SDS_P2;PMS_P1;PMS_P2;Temp;Humidity;BMP_temperature;BMP_pressure;BME280_temperature;BME280_humidity;BME280_pressure;Samples;Min_cycle;Max_cycle;Signal;HPM_P1;HPM_P2
2022/04/07 00:01:06;;;;;;;6.87;5.03;;;9.60;99.90;;;;;;5036539;28;20045;-52
2022/04/07 00:03:31;;;;;;;8.05;5.80;;;9.60;99.90;;;;;;5048713;28;20037;-50
2022/04/07 00:05:57;;;;;;;5.60;5.07;;;9.60;99.90;;;;;;5052493;28;20033;-51
2022/04/07 00:08:23;;;;;;;7.53;5.20;;;9.60;99.90;;;;;;5051710;28;20037;-51
2022/04/07 00:10:50;;;;;;;7.10;6.03;;;9.50;99.90;;;;;;5053019;28;20033;-51
2022/04/07 00:13:16;;;;;;;8.68;6.47;;;9.50;99.90;;;;;;5052444;28;20068;-53
2022/04/07 00:15:41;;;;;;;7.28;6.50;;;9.50;99.90;;;;;;5052656;28;20040;-50
2022/04/07 00:18:07;;;;;;;8.67;7.70;;;9.50;99.90;;;;;;5034376;28;20395;-54
2022/04/07 00:20:34;;;;;;;7.40;5.78;;;9.50;99.90;;;;;;5033162;28;20300;-54
2022/04/07 00:22:59;;;;;;;6.70;5.82;;;9.50;99.90;;;;;;5050231;28;20513;-52
2022/04/07 00:25:25;;;;;;;7.30;6.60;;;9.60;99.90;;;;;;5052701;28;20108;-51
2022/04/07 00:27:51;;;;;;;6.80;6.10;;;9.60;99.90;;;;;;5037040;28;20103;-54
2022/04/07 00:30:20;;;;;;;9.85;6.32;;;9.60;99.90;;;;;;5032977;28;20116;-51
2022/04/07 00:32:46;;;;;;;5.82;5.35;;;9.60;99.90;;;;;;5033732;28;20116;-53
2022/04/07 00:35:11;;;;;;;9.63;6.38;;;9.60;99.90;;;;;;5038115;28;20044;-52
2022/04/07 00:37:38;;;;;;;7.40;6.80;;;9.60;99.90;;;;;;5052433;28;20394;-50
2022/04/07 00:40:05;;;;;;;6.28;5.45;;;9.60;99.90;;;;;;5048639;28;20104;-52
2022/04/07 00:42:30;;;;;;;7.55;6.85;;;9.60;99.90;;;;;;5040515;28;20037;-53
2022/04/07 00:44:56;;;;;;;6.63;5.87;;;9.60;99.90;;;;;;5035001;28;20411;-50
2022/04/07 00:47:23;;;;;;;8.37;5.97;;;9.60;99.90;;;;;;5032419;28;20046;-51
2022/04/07 00:49:48;;;;;;;7.60;5.40;;;9.50;99.90;;;;;;5046117;28;20041;-54
2022/04/07 00:52:15;;;;;;;7.00;5.87;;;9.50;99.90;;;;;;5049119;28;20087;-53
2022/04/07 00:54:41;;;;;;;7.13;5.45;;;9.50;99.90;;;;;;5032170;28;20056;-49
2022/04/07 00:57:09;;;;;;;8.60;5.90;;;9.50;99.90;;;;;;5047035;28;20045;-52
2022/04/07 00:59:35;;;;;;;5.80;5.20;;;9.50;99.90;;;;;;5052144;28;20041;-54
2022/04/07 01:02:01;;;;;;;16.38;5.88;;;9.50;99.90;;;;;;5038237;28;20620;-54
2022/04/07 01:04:27;;;;;;;7.43;6.45;;;9.40;99.90;;;;;;5050750;28;20077;-52
2022/04/07 01:06:52;;;;;;;7.50;5.70;;;9.40;99.90;;;;;;5033707;28;20495;-52
2022/04/07 01:09:19;;;;;;;5.43;4.93;;;9.40;99.90;;;;;;5032431;28;20044;-51
2022/04/07 01:11:45;;;;;;;6.72;5.15;;;9.40;99.90;;;;;;5049882;28;20060;-54
2022/04/07 01:14:11;;;;;;;5.43;4.65;;;9.40;99.90;;;;;;5038038;28;20483;-50
2022/04/07 01:16:37;;;;;;;8.63;6.10;;;9.40;99.90;;;;;;5032415;28;20045;-50
2022/04/07 01:19:03;;;;;;;10.40;5.30;;;9.40;99.90;;;;;;5044112;28;20037;-50
2022/04/07 01:21:32;;;;;;;6.28;5.78;;;9.40;99.90;;;;;;5046415;28;20457;-50
2022/04/07 01:24:08;;;;;;;7.47;6.10;;;9.40;99.90;;;;;;5041066;28;20120;-50
2022/04/07 01:26:41;;;;;;;10.05;5.53;;;9.50;99.90;;;;;;5045502;28;20029;-51
2022/04/07 01:29:08;;;;;;;6.32;4.90;;;9.50;99.90;;;;;;5031958;28;20041;-51
2022/04/07 01:31:34;;;;;;;5.55;5.05;;;9.50;99.90;;;;;;5035875;28;20033;-51
2022/04/07 01:34:01;;;;;;;5.00;4.60;;;9.50;99.90;;;;;;5045303;28;20211;-50
2022/04/07 01:36:29;;;;;;;7.85;4.65;;;9.50;99.90;;;;;;5032416;28;20049;-51
2022/04/07 01:38:58;;;;;;;5.97;4.93;;;9.50;99.90;;;;;;5031471;28;20045;-52
2022/04/07 01:41:26;;;;;;;6.70;5.45;;;9.50;99.90;;;;;;5034185;28;20033;-50
2022/04/07 01:43:55;;;;;;;10.43;4.32;;;9.40;99.90;;;;;;5049965;28;20041;-51
2022/04/07 01:46:22;;;;;;;8.75;4.78;;;9.40;99.90;;;;;;5050157;28;20037;-49
2022/04/07 01:48:48;;;;;;;7.78;4.07;;;9.40;99.90;;;;;;5049601;28;20039;-50
2022/04/07 01:51:15;;;;;;;5.70;4.07;;;9.40;99.90;;;;;;5031322;28;20044;-50
2022/04/07 01:53:41;;;;;;;7.53;3.30;;;9.30;99.90;;;;;;5035174;28;20037;-51
2022/04/07 01:56:08;;;;;;;5.40;3.15;;;9.40;99.90;;;;;;5030545;28;20402;-52
2022/04/07 01:58:34;;;;;;;3.80;3.00;;;9.40;99.90;;;;;;5032661;28;20112;-54
2022/04/07 02:01:00;;;;;;;7.07;3.55;;;9.40;99.90;;;;;;5031379;28;20586;-50
2022/04/07 02:03:26;;;;;;;4.80;4.35;;;9.30;99.90;;;;;;5041119;28;20119;-50
2022/04/07 02:05:51;;;;;;;5.83;4.67;;;9.30;99.90;;;;;;5030828;28;20033;-50
2022/04/07 02:08:17;;;;;;;9.67;3.70;;;9.30;99.90;;;;;;5041355;28;20486;-50
2022/04/07 02:10:42;;;;;;;5.53;3.47;;;9.30;99.90;;;;;;5050761;28;20271;-50
2022/04/07 02:13:08;;;;;;;7.57;3.90;;;9.30;99.90;;;;;;5041775;28;20037;-50
2022/04/07 02:15:35;;;;;;;7.47;3.53;;;9.30;99.90;;;;;;5031917;28;20070;-50
2022/04/07 02:18:00;;;;;;;5.72;4.22;;;9.30;99.90;;;;;;5038128;28;20075;-52
2022/04/07 02:20:26;;;;;;;7.63;5.03;;;9.20;99.90;;;;;;5049964;28;20535;-50
2022/04/07 02:22:52;;;;;;;9.35;4.97;;;9.20;99.90;;;;;;5043831;28;20556;-53
2022/04/07 02:25:21;;;;;;;8.52;4.70;;;9.30;99.90;;;;;;5037321;28;20110;-52
2022/04/07 02:27:47;;;;;;;8.48;4.30;;;9.20;99.90;;;;;;5043494;28;20033;-54
2022/04/07 02:30:14;;;;;;;12.03;5.80;;;9.30;99.90;;;;;;5030926;28;20045;-50
2022/04/07 02:32:41;;;;;;;7.97;4.30;;;9.30;99.90;;;;;;5035409;28;20063;-51
2022/04/07 02:35:08;;;;;;;8.18;4.57;;;9.30;99.90;;;;;;5048599;28;20108;-51
2022/04/07 02:37:34;;;;;;;10.38;4.93;;;9.30;99.90;;;;;;5049496;28;20032;-50
2022/04/07 02:39:59;;;;;;;7.70;4.43;;;9.30;99.90;;;;;;5047963;28;20298;-54
2022/04/07 02:42:25;;;;;;;10.10;5.40;;;9.30;99.90;;;;;;5030744;28;20116;-54
2022/04/07 02:44:50;;;;;;;9.07;4.53;;;9.30;99.90;;;;;;5030536;28;20041;-51
2022/04/07 02:47:17;;;;;;;16.10;5.60;;;9.30;99.90;;;;;;5050290;28;20037;-50
2022/04/07 02:49:42;;;;;;;7.40;4.82;;;9.30;99.90;;;;;;5044579;28;20422;-52
2022/04/07 02:52:10;;;;;;;3.92;3.10;;;9.30;99.90;;;;;;5030079;28;20087;-52
2022/04/07 02:54:37;;;;;;;12.93;4.05;;;9.30;99.90;;;;;;5047994;28;20041;-54
2022/04/07 02:57:03;;;;;;;9.80;4.45;;;9.30;99.90;;;;;;5047727;28;20085;-53
2022/04/07 02:59:28;;;;;;;8.57;4.53;;;9.30;99.90;;;;;;5046023;28;20049;-50
2022/04/07 03:01:56;;;;;;;6.60;3.60;;;9.30;99.90;;;;;;5030529;28;20522;-52
2022/04/07 03:04:24;;;;;;;6.70;4.03;;;9.30;99.90;;;;;;5030976;28;20046;-54
2022/04/07 03:06:52;;;;;;;8.23;3.40;;;9.20;99.90;;;;;;5048584;28;20436;-53
2022/04/07 03:09:19;;;;;;;10.15;3.58;;;9.20;99.90;;;;;;5049082;28;20048;-52
2022/04/07 03:11:48;;;;;;;4.38;2.75;;;9.20;99.90;;;;;;5030450;28;20041;-54
2022/04/07 03:14:14;;;;;;;5.63;3.65;;;9.20;99.90;;;;;;5039682;28;20029;-53
2022/04/07 03:16:40;;;;;;;4.85;3.00;;;9.10;99.90;;;;;;5048017;28;20068;-54
2022/04/07 03:19:06;;;;;;;8.20;2.85;;;9.10;99.90;;;;;;5049840;28;20494;-53
2022/04/07 03:21:31;;;;;;;7.75;2.58;;;9.10;99.90;;;;;;5049267;28;20045;-54
2022/04/07 03:23:57;;;;;;;6.05;2.70;;;9.10;99.90;;;;;;5031213;28;20048;-54
2022/04/07 03:26:22;;;;;;;6.73;2.77;;;9.10;99.90;;;;;;5030634;28;20067;-52
2022/04/07 03:28:48;;;;;;;13.23;3.27;;;9.10;99.90;;;;;;5030186;28;20037;-50
2022/04/07 03:31:14;;;;;;;6.87;2.57;;;9.10;99.90;;;;;;5038750;28;20279;-50
2022/04/07 03:33:39;;;;;;;14.55;2.58;;;9.10;99.90;;;;;;5049898;28;20437;-50
2022/04/07 03:36:05;;;;;;;10.02;3.33;;;9.10;99.90;;;;;;5047425;28;20036;-49
2022/04/07 03:38:31;;;;;;;13.67;3.40;;;9.10;99.90;;;;;;5048412;28;20045;-51
2022/04/07 03:40:56;;;;;;;6.70;2.10;;;9.00;99.90;;;;;;5033717;28;20673;-51
2022/04/07 03:43:22;;;;;;;12.13;1.87;;;9.00;99.90;;;;;;5029538;28;20411;-49
2022/04/07 03:45:47;;;;;;;11.67;3.27;;;9.00;99.90;;;;;;5042762;28;20513;-53
2022/04/07 03:48:13;;;;;;;12.13;2.93;;;9.00;99.90;;;;;;5029756;28;20033;-49
2022/04/07 03:50:38;;;;;;;8.03;2.30;;;9.00;99.90;;;;;;5041637;28;20436;-51
2022/04/07 03:53:04;;;;;;;16.60;3.13;;;9.00;99.90;;;;;;5045715;28;20065;-49
2022/04/07 03:55:30;;;;;;;10.05;2.58;;;9.00;99.90;;;;;;5029580;28;20268;-50
2022/04/07 03:57:56;;;;;;;13.32;2.72;;;9.00;99.90;;;;;;5030593;28;20047;-51
2022/04/07 04:00:22;;;;;;;13.50;2.42;;;9.00;99.90;;;;;;5030102;28;20045;-49
2022/04/07 04:02:50;;;;;;;10.43;2.28;;;9.00;99.90;;;;;;5039610;28;20120;-50
2022/04/07 04:05:16;;;;;;;13.82;3.33;;;9.00;99.90;;;;;;5048155;28;20056;-49
2022/04/07 04:07:42;;;;;;;15.75;3.53;;;9.00;99.90;;;;;;5036202;28;20076;-50
2022/04/07 04:10:08;;;;;;;8.90;2.13;;;9.00;99.90;;;;;;5033168;28;20064;-53
2022/04/07 04:12:33;;;;;;;11.27;3.05;;;9.00;99.90;;;;;;5048693;28;20037;-51
2022/04/07 04:15:01;;;;;;;11.93;3.23;;;9.10;99.90;;;;;;5053000;28;20182;-50
2022/04/07 04:17:30;;;;;;;17.88;3.40;;;9.10;99.90;;;;;;5038449;28;20041;-52
2022/04/07 04:19:55;;;;;;;10.05;2.78;;;9.10;99.90;;;;;;5032045;28;20057;-51
2022/04/07 04:22:21;;;;;;;15.70;3.45;;;9.10;99.90;;;;;;5047017;28;20040;-52
2022/04/07 04:24:48;;;;;;;7.50;2.90;;;9.10;99.90;;;;;;5051320;28;20406;-49
2022/04/07 04:27:13;;;;;;;7.75;2.47;;;9.10;99.90;;;;;;5039201;28;20201;-50
2022/04/07 04:29:40;;;;;;;11.00;2.97;;;9.10;99.90;;;;;;5052849;28;20502;-50
2022/04/07 04:32:06;;;;;;;22.17;3.08;;;9.10;99.90;;;;;;5043137;28;20029;-53
2022/04/07 04:34:31;;;;;;;12.98;3.65;;;9.10;99.90;;;;;;5032592;28;20191;-52
2022/04/07 04:36:57;;;;;;;12.00;3.30;;;9.10;99.90;;;;;;5050461;28;20044;-49
2022/04/07 04:39:24;;;;;;;21.97;3.93;;;9.10;99.90;;;;;;5051326;28;20041;-52
2022/04/07 04:41:50;;;;;;;18.05;3.80;;;9.10;99.90;;;;;;5045906;28;20049;-52
2022/04/07 04:44:15;;;;;;;16.15;3.97;;;9.10;99.90;;;;;;5051952;28;20508;-53
2022/04/07 04:46:41;;;;;;;17.58;4.30;;;9.10;99.90;;;;;;5036894;28;20170;-52
2022/04/07 04:49:07;;;;;;;16.52;4.47;;;9.00;99.90;;;;;;5032835;28;20112;-53
2022/04/07 04:51:33;;;;;;;20.73;4.10;;;9.00;99.90;;;;;;5040645;28;20116;-53
2022/04/07 04:53:59;;;;;;;18.25;4.45;;;8.90;99.90;;;;;;5052627;28;20037;-52
2022/04/07 04:56:27;;;;;;;12.57;3.73;;;8.90;99.90;;;;;;5039711;28;20071;-49
2022/04/07 04:58:53;;;;;;;13.45;3.83;;;8.90;99.90;;;;;;5033312;28;20067;-53
2022/04/07 05:01:18;;;;;;;15.10;3.30;;;8.90;99.90;;;;;;5050657;28;20090;-50
2022/04/07 05:03:44;;;;;;;18.17;4.97;;;8.90;99.90;;;;;;5052097;28;20454;-50
2022/04/07 05:06:09;;;;;;;21.77;4.37;;;8.90;99.90;;;;;;5032158;28;20033;-52
2022/04/07 05:08:35;;;;;;;11.30;3.43;;;9.00;99.90;;;;;;5032221;28;20045;-50
2022/04/07 05:11:00;;;;;;;21.10;4.10;;;9.00;99.90;;;;;;5049846;28;20033;-51
2022/04/07 05:13:26;;;;;;;12.60;4.40;;;8.90;99.90;;;;;;5038666;28;20582;-50
2022/04/07 05:15:52;;;;;;;17.45;3.38;;;9.00;99.90;;;;;;5051685;28;20513;-49
2022/04/07 05:18:17;;;;;;;13.70;2.37;;;9.00;99.90;;;;;;5047582;28;20045;-51
2022/04/07 05:20:43;;;;;;;8.63;3.33;;;9.00;99.90;;;;;;5031362;28;20044;-50
2022/04/07 05:23:08;;;;;;;10.07;2.80;;;9.00;99.90;;;;;;5032868;28;20453;-53
2022/04/07 05:25:34;;;;;;;13.67;3.10;;;9.10;99.90;;;;;;5031703;28;20057;-51
2022/04/07 05:27:59;;;;;;;11.73;2.97;;;9.00;99.90;;;;;;5042497;28;20034;-52
2022/04/07 05:30:25;;;;;;;16.80;3.23;;;9.00;99.90;;;;;;5050738;28;20044;-50
2022/04/07 05:32:51;;;;;;;12.32;2.58;;;9.00;99.90;;;;;;5039141;28;20029;-51
2022/04/07 05:35:16;;;;;;;13.23;2.87;;;9.00;99.90;;;;;;5051565;28;20114;-52
2022/04/07 05:37:42;;;;;;;14.50;3.15;;;9.00;99.90;;;;;;5035127;28;20040;-53
2022/04/07 05:40:12;;;;;;;12.40;2.40;;;9.10;99.90;;;;;;5030311;28;20409;-51
2022/04/07 05:42:38;;;;;;;9.27;2.28;;;9.00;99.90;;;;;;5044914;28;20094;-51
2022/04/07 05:45:05;;;;;;;10.13;2.45;;;9.00;99.90;;;;;;5034117;28;20041;-52
2022/04/07 05:47:30;;;;;;;13.95;1.80;;;9.00;99.90;;;;;;5051454;28;20055;-49
2022/04/07 05:49:56;;;;;;;9.63;2.10;;;9.10;99.90;;;;;;5049020;28;20041;-49
2022/04/07 05:52:22;;;;;;;12.18;3.13;;;9.10;99.90;;;;;;5031870;28;20156;-51
2022/04/07 05:54:48;;;;;;;10.98;1.70;;;9.10;99.90;;;;;;5046421;28;20256;-52
2022/04/07 05:57:14;;;;;;;8.13;1.67;;;9.10;99.90;;;;;;5050695;28;20048;-51
2022/04/07 05:59:39;;;;;;;13.07;2.05;;;9.20;99.90;;;;;;5036767;28;20415;-49
2022/04/07 06:02:05;;;;;;;7.00;2.07;;;9.10;99.90;;;;;;5040513;28;20029;-49
2022/04/07 06:04:30;;;;;;;4.97;1.83;;;9.20;99.90;;;;;;5036094;28;20046;-49
2022/04/07 06:06:56;;;;;;;8.57;1.23;;;9.20;99.90;;;;;;5038407;28;20037;-49
2022/04/07 06:09:22;;;;;;;16.67;2.20;;;9.20;99.90;;;;;;5050866;28;20047;-49
2022/04/07 06:11:47;;;;;;;5.75;1.15;;;9.20;99.90;;;;;;5048992;28;20121;-49
2022/04/07 06:14:13;;;;;;;7.43;1.87;;;9.20;99.90;;;;;;5049251;28;20033;-50
2022/04/07 06:16:38;;;;;;;7.07;2.03;;;9.20;99.90;;;;;;5048910;28;20283;-50
2022/04/07 06:19:04;;;;;;;3.33;0.70;;;9.20;99.90;;;;;;5051285;28;20079;-49
2022/04/07 06:21:30;;;;;;;1.60;0.20;;;8.80;99.90;;;;;;5040821;28;20040;-49
2022/04/07 06:23:59;;;;;;;0.67;0.10;;;8.20;99.90;;;;;;5046160;28;20295;-49
2022/04/07 06:26:25;;;;;;;0.35;0.10;;;7.50;99.90;;;;;;5036860;28;20130;-50
2022/04/07 06:28:51;;;;;;;2.05;0.20;;;7.00;99.90;;;;;;5041470;28;20487;-50
2022/04/07 06:31:17;;;;;;;1.30;0.20;;;6.60;99.90;;;;;;5040149;28;20045;-49
2022/04/07 06:33:42;;;;;;;2.40;0.45;;;6.40;99.90;;;;;;5031830;28;20041;-50
2022/04/07 06:36:08;;;;;;;3.47;0.20;;;6.30;99.90;;;;;;5032483;28;20343;-49
2022/04/07 06:38:33;;;;;;;0.87;0.20;;;6.20;99.90;;;;;;5017961;28;20295;-49
2022/04/07 06:41:00;;;;;;;2.53;0.20;;;6.10;99.90;;;;;;5030062;28;20110;-51
2022/04/07 06:43:26;;;;;;;1.52;0.20;;;6.10;99.90;;;;;;5042794;28;20067;-50
2022/04/07 06:45:52;;;;;;;4.80;0.47;;;6.00;99.90;;;;;;5030155;28;20042;-50
2022/04/07 06:48:17;;;;;;;2.72;0.30;;;6.00;99.90;;;;;;5039900;28;20033;-51
2022/04/07 06:50:44;;;;;;;0.80;0.17;;;6.00;99.90;;;;;;5047746;28;20045;-51
2022/04/07 06:53:12;;;;;;;2.55;0.65;;;6.00;99.90;;;;;;5046394;28;20064;-49
2022/04/07 06:55:37;;;;;;;1.42;0.15;;;6.00;99.90;;;;;;5043564;28;20051;-49
2022/04/07 06:58:06;;;;;;;3.10;0.20;;;6.00;99.90;;;;;;5048397;28;20037;-50
2022/04/07 07:00:33;;;;;;;2.47;0.20;;;6.00;99.90;;;;;;5050393;28;20441;-50
2022/04/07 07:03:03;;;;;;;0.73;0.17;;;6.00;99.90;;;;;;5041180;28;20108;-50
2022/04/07 07:05:31;;;;;;;3.25;0.20;;;5.90;99.90;;;;;;5049041;28;20079;-49
2022/04/07 07:07:56;;;;;;;2.47;0.20;;;5.80;99.90;;;;;;5048537;28;20041;-49
2022/04/07 07:10:24;;;;;;;0.70;0.20;;;5.80;99.90;;;;;;5035555;28;20321;-49
2022/04/07 07:12:51;;;;;;;2.45;0.17;;;5.80;99.90;;;;;;5030040;28;20102;-49
2022/04/07 07:15:17;;;;;;;3.67;0.20;;;5.70;99.90;;;;;;5032126;28;20292;-49
2022/04/07 07:17:43;;;;;;;1.65;0.25;;;5.70;99.90;;;;;;5029786;28;20060;-52
2022/04/07 07:20:13;;;;;;;0.20;0.10;;;5.60;99.90;;;;;;5047353;28;20068;-49
2022/04/07 07:22:40;;;;;;;0.90;0.10;;;5.60;99.90;;;;;;5050908;28;20206;-50
2022/04/07 07:25:08;;;;;;;1.48;0.10;;;5.50;99.90;;;;;;5043539;28;20049;-49
2022/04/07 07:27:42;;;;;;;1.38;0.10;;;5.50;99.90;;;;;;5048697;28;20067;-49
2022/04/07 07:30:09;;;;;;;1.40;0.35;;;5.40;99.90;;;;;;5050043;28;20033;-52
2022/04/07 07:32:39;;;;;;;1.67;0.17;;;5.40;99.90;;;;;;5044330;28;20451;-49
2022/04/07 07:35:07;;;;;;;0.40;0.35;;;5.30;99.90;;;;;;5029720;28;20038;-51
2022/04/07 07:37:33;;;;;;;2.28;0.25;;;5.30;99.90;;;;;;5029980;28;20360;-51
2022/04/07 07:40:04;;;;;;;1.90;0.20;;;5.30;99.90;;;;;;5032706;28;20068;-53
2022/04/07 07:42:29;;;;;;;0.65;0.20;;;5.20;99.90;;;;;;5048136;28;20037;-52
2022/04/07 07:44:55;;;;;;;0.40;0.20;;;5.20;99.90;;;;;;5032701;28;20044;-53
2022/04/07 07:47:21;;;;;;;3.20;0.30;;;5.20;99.90;;;;;;5050791;28;20543;-52
2022/04/07 07:49:46;;;;;;;2.27;0.30;;;5.20;99.90;;;;;;5045793;28;20068;-50
2022/04/07 07:52:12;;;;;;;2.17;0.20;;;5.20;99.90;;;;;;5033935;28;20041;-50
2022/04/07 07:54:37;;;;;;;1.00;0.20;;;5.10;99.90;;;;;;5038687;28;20033;-48
2022/04/07 07:57:03;;;;;;;3.93;0.33;;;5.10;99.90;;;;;;5039880;28;20093;-49
2022/04/07 07:59:28;;;;;;;1.02;0.30;;;5.10;99.90;;;;;;5037977;28;20441;-49
2022/04/07 08:01:54;;;;;;;1.27;0.20;;;5.20;99.90;;;;;;5053511;28;20040;-51
2022/04/07 08:04:19;;;;;;;5.43;0.40;;;5.20;99.90;;;;;;5042003;28;20037;-50
2022/04/07 08:06:45;;;;;;;5.07;0.50;;;5.20;99.90;;;;;;5040946;28;20045;-49
2022/04/07 08:09:13;;;;;;;5.30;0.67;;;5.20;99.90;;;;;;5047643;28;20045;-49
2022/04/07 08:11:41;;;;;;;3.03;0.57;;;5.20;99.90;;;;;;5043223;28;20443;-49
2022/04/07 08:14:07;;;;;;;1.80;0.20;;;5.30;99.90;;;;;;5041398;28;20053;-49
2022/04/07 08:16:33;;;;;;;5.65;0.57;;;5.30;99.90;;;;;;5034022;28;20486;-52
2022/04/07 08:18:59;;;;;;;4.18;0.30;;;5.30;99.90;;;;;;5032843;28;20128;-49
2022/04/07 08:21:24;;;;;;;1.50;0.30;;;5.30;99.90;;;;;;5047354;28;20044;-48
2022/04/07 08:23:50;;;;;;;0.93;0.30;;;5.40;99.90;;;;;;5053105;28;20040;-49
2022/04/07 08:26:16;;;;;;;2.63;0.30;;;5.40;99.90;;;;;;5039072;28;20044;-50
2022/04/07 08:28:41;;;;;;;1.70;0.40;;;5.40;99.90;;;;;;5033974;28;20167;-49
2022/04/07 08:31:07;;;;;;;3.13;0.35;;;5.40;99.90;;;;;;5033377;28;20414;-50
2022/04/07 08:33:32;;;;;;;3.93;0.20;;;5.40;99.90;;;;;;5033587;28;20053;-51
2022/04/07 08:35:58;;;;;;;1.43;0.53;;;5.50;99.90;;;;;;5032821;28;20116;-49
2022/04/07 08:38:24;;;;;;;2.17;0.20;;;5.50;99.90;;;;;;5036073;28;20072;-54
2022/04/07 08:40:51;;;;;;;0.77;0.20;;;5.50;99.90;;;;;;5043822;28;20287;-52
2022/04/07 08:43:18;;;;;;;1.98;0.25;;;5.50;99.90;;;;;;5041108;28;20188;-49
2022/04/07 08:45:44;;;;;;;2.85;0.25;;;5.50;99.90;;;;;;5046539;28;20033;-50
2022/04/07 08:48:11;;;;;;;3.35;0.20;;;5.50;99.90;;;;;;5050043;28;20065;-51
2022/04/07 08:50:44;;;;;;;0.88;0.20;;;5.60;99.90;;;;;;5052756;28;20122;-49
2022/04/07 08:53:11;;;;;;;1.23;0.15;;;5.70;99.90;;;;;;5037201;28;20037;-48
2022/04/07 08:55:37;;;;;;;1.73;0.30;;;5.70;99.90;;;;;;5030814;28;20120;-51
2022/04/07 08:58:03;;;;;;;1.10;0.20;;;5.70;99.90;;;;;;5046175;28;20068;-51
2022/04/07 09:00:29;;;;;;;1.75;0.20;;;5.80;99.90;;;;;;5034790;28;20034;-49
2022/04/07 09:02:55;;;;;;;0.98;0.20;;;5.80;99.90;;;;;;5045056;28;20447;-50
2022/04/07 09:05:23;;;;;;;2.13;0.88;;;5.90;99.90;;;;;;5052057;28;20040;-52
2022/04/07 09:07:50;;;;;;;1.92;0.17;;;6.20;99.90;;;;;;5040242;28;20570;-52
2022/04/07 09:10:19;;;;;;;3.60;0.35;;;6.60;99.90;;;;;;5033189;28;20402;-51
2022/04/07 09:12:45;;;;;;;2.30;0.20;;;6.90;99.90;;;;;;5032662;28;20045;-51
2022/04/07 09:15:12;;;;;;;3.63;0.55;;;7.20;99.90;;;;;;5040452;28;20504;-50
2022/04/07 09:17:55;;;;;;;3.25;0.32;;;7.40;99.90;;;;;;5050820;28;20041;-51
2022/04/07 09:20:22;;;;;;;3.45;0.40;;;7.60;99.90;;;;;;5041772;28;20415;-50
2022/04/07 09:23:01;;;;;;;3.55;0.40;;;7.80;99.90;;;;;;5031808;28;20049;-49
2022/04/07 09:25:27;;;;;;;20.67;0.70;;;8.00;99.90;;;;;;5035938;28;20037;-50
2022/04/07 09:27:57;;;;;;;6.97;0.30;;;8.20;99.90;;;;;;5031877;28;20072;-50
2022/04/07 09:30:23;;;;;;;0.63;0.20;;;8.30;99.90;;;;;;5032038;28;20042;-50
2022/04/07 09:32:49;;;;;;;3.83;0.30;;;8.50;99.90;;;;;;5031773;28;20411;-52
2022/04/07 09:35:15;;;;;;;1.65;0.85;;;8.70;99.90;;;;;;5042500;28;20094;-52
2022/04/07 09:37:42;;;;;;;2.45;0.20;;;8.80;99.90;;;;;;5051548;28;20048;-51
2022/04/07 09:40:13;;;;;;;3.05;0.20;;;9.00;99.90;;;;;;5035815;28;20450;-49
2022/04/07 09:42:40;;;;;;;6.75;0.68;;;9.20;99.90;;;;;;5039246;28;20041;-50
2022/04/07 09:45:07;;;;;;;5.15;0.40;;;9.30;99.90;;;;;;5039794;28;20073;-51
2022/04/07 09:47:44;;;;;;;4.53;0.52;;;9.40;99.90;;;;;;5050475;28;20063;-53
2022/04/07 09:50:31;;;;;;;4.47;0.55;;;9.50;99.90;;;;;;5037929;28;20041;-53
2022/04/07 09:52:58;;;;;;;;;;;9.70;99.90;;;;;;5037888;28;20098;-50
2022/04/07 09:55:29;;;;;;;4.40;0.50;;;9.80;99.90;;;;;;5041231;28;19943;-54
2022/04/07 09:57:56;;;;;;;4.68;0.95;;;9.80;99.90;;;;;;5042067;28;20041;-49
2022/04/07 10:00:21;;;;;;;6.38;1.00;;;9.80;99.90;;;;;;5050966;28;20113;-49
2022/04/07 10:02:48;;;;;;;3.33;0.40;;;9.90;99.90;;;;;;5041121;28;20167;-49
2022/04/07 10:05:14;;;;;;;3.33;0.40;;;9.90;99.90;;;;;;5031755;28;20045;-51
2022/04/07 10:07:42;;;;;;;1.42;0.30;;;10.00;99.90;;;;;;5038578;28;20094;-50
2022/04/07 10:10:08;;;;;;;5.90;0.65;;;10.10;99.90;;;;;;5047435;28;20286;-49
2022/04/07 10:12:34;;;;;;;7.68;0.57;;;10.20;99.90;;;;;;5029804;28;20049;-50
2022/04/07 10:14:59;;;;;;;9.40;1.13;;;10.20;99.90;;;;;;5031629;28;20402;-50
2022/04/07 10:17:25;;;;;;;8.32;1.27;;;10.10;99.90;;;;;;5036280;28;20045;-51
2022/04/07 10:20:01;;;;;;;8.80;0.70;;;10.00;99.90;;;;;;5040517;28;20132;-50
2022/04/07 10:22:58;;;;;;;7.35;0.50;;;10.00;99.90;;;;;;5039938;28;20394;-52
2022/04/07 10:25:24;;;;;;;6.97;0.40;;;10.00;99.90;;;;;;5039969;28;20128;-50
2022/04/07 10:27:53;;;;;;;10.52;1.27;;;10.00;99.90;;;;;;5038437;28;20562;-49
2022/04/07 10:30:19;;;;;;;5.70;0.68;;;10.00;99.90;;;;;;5035893;28;20091;-50
2022/04/07 10:32:52;;;;;;;6.57;0.70;;;10.10;99.90;;;;;;5030892;28;20042;-50
2022/04/07 10:35:30;;;;;;;6.53;0.68;;;10.00;99.90;;;;;;5030138;28;20071;-49
2022/04/07 10:38:05;;;;;;;6.30;0.60;;;10.10;99.90;;;;;;5030373;28;20104;-52
2022/04/07 10:40:48;;;;;;;10.70;0.88;;;10.10;99.90;;;;;;5035350;28;20040;-50
2022/04/07 10:43:14;;;;;;;7.95;0.75;;;10.10;99.90;;;;;;5050484;28;20557;-50
2022/04/07 10:45:48;;;;;;;6.23;0.60;;;10.00;99.90;;;;;;5041166;28;20037;-49
2022/04/07 10:48:37;;;;;;;9.65;1.08;;;9.70;99.90;;;;;;5029901;28;20419;-49
2022/04/07 10:51:04;;;;;;;8.70;1.48;;;9.40;99.90;;;;;;5037286;28;20046;-49
2022/04/07 10:53:35;;;;;;;7.68;1.05;;;9.40;99.90;;;;;;5037186;28;20379;-50
2022/04/07 10:56:07;;;;;;;9.75;1.48;;;9.40;99.90;;;;;;5050019;28;20466;-51
2022/04/07 10:58:41;;;;;;;11.60;1.17;;;9.50;99.90;;;;;;5043244;28;20398;-54
2022/04/07 11:01:07;;;;;;;6.43;1.25;;;9.60;99.90;;;;;;5031453;28;20882;-49
2022/04/07 11:03:34;;;;;;;14.88;1.70;;;9.80;99.90;;;;;;5029992;28;20571;-51
2022/04/07 11:06:03;;;;;;;10.38;2.38;;;9.90;99.90;;;;;;5031234;28;20076;-50
2022/04/07 11:08:30;;;;;;;10.82;1.60;;;10.00;99.90;;;;;;5049914;28;20072;-50
2022/04/07 11:10:56;;;;;;;;;;;10.00;99.90;;;;;;5048839;28;20053;-52
2022/04/07 11:13:41;;;;;;;9.10;0.80;;;10.20;99.90;;;;;;5049652;28;19923;-51
2022/04/07 11:16:36;;;;;;;12.43;0.90;;;10.30;99.90;;;;;;5037171;28;20050;-50
2022/04/07 11:19:11;;;;;;;9.95;1.45;;;10.40;99.90;;;;;;4967758;28;20629;-52
2022/04/07 11:21:45;;;;;;;7.32;0.95;;;10.60;99.90;;;;;;4973479;28;20038;-49
2022/04/07 11:24:22;;;;;;;10.10;0.47;;;10.70;99.90;;;;;;4971572;28;20117;-52
2022/04/07 11:26:47;;;;;;;8.80;1.05;;;10.60;99.90;;;;;;4968806;28;20189;-50
2022/04/07 11:29:13;;;;;;;5.80;0.90;;;10.40;99.90;;;;;;4968494;28;20083;-52
2022/04/07 11:31:45;;;;;;;8.63;1.05;;;10.10;99.90;;;;;;4980244;28;20082;-53
2022/04/07 11:34:42;;;;;;;9.02;0.68;;;9.60;99.90;;;;;;4975230;28;21013;-53
2022/04/07 11:37:12;;;;;;;5.57;0.75;;;8.60;99.90;;;;;;4967481;28;20256;-49
2022/04/07 11:39:43;;;;;;;8.35;0.80;;;8.10;99.90;;;;;;4982980;28;20519;-53
2022/04/07 11:42:09;;;;;;;13.13;2.05;;;8.10;99.90;;;;;;4966204;28;20054;-52
2022/04/07 11:44:34;;;;;;;8.03;1.17;;;8.30;99.90;;;;;;4976990;28;20053;-53
2022/04/07 11:47:01;;;;;;;18.90;2.20;;;8.80;99.90;;;;;;4979497;28;20121;-50
2022/04/07 11:49:28;;;;;;;11.13;1.23;;;9.20;99.90;;;;;;4987826;28;20397;-50
2022/04/07 11:51:53;;;;;;;10.25;0.88;;;9.50;99.90;;;;;;4987531;28;20042;-49
2022/04/07 11:54:20;;;;;;;7.30;0.87;;;9.80;99.90;;;;;;4973800;28;20055;-53
2022/04/07 11:56:47;;;;;;;9.27;1.30;;;10.10;99.90;;;;;;5045827;28;20040;-51
2022/04/07 11:59:12;;;;;;;13.00;1.13;;;10.30;99.90;;;;;;5044194;28;20498;-50
2022/04/07 12:01:45;;;;;;;11.37;2.00;;;10.30;99.90;;;;;;5041379;28;20045;-50
2022/04/07 12:04:13;;;;;;;11.88;1.42;;;10.30;99.90;;;;;;5030465;28;20825;-51
2022/04/07 12:06:41;;;;;;;5.85;0.50;;;10.20;99.90;;;;;;5036053;28;20074;-52
2022/04/07 12:09:07;;;;;;;9.45;1.20;;;10.20;99.90;;;;;;5049585;28;20037;-53
2022/04/07 12:11:36;;;;;;;10.80;1.25;;;10.20;99.90;;;;;;5034247;28;20495;-50
2022/04/07 12:14:08;;;;;;;8.05;0.93;;;10.30;99.90;;;;;;5035531;28;20033;-52
2022/04/07 12:16:34;;;;;;;4.22;1.05;;;10.50;99.90;;;;;;5048647;28;20036;-51
2022/04/07 12:19:07;;;;;;;15.43;1.50;;;10.60;99.90;;;;;;5047712;28;20048;-54
2022/04/07 12:21:56;;;;;;;12.73;2.35;;;10.80;99.90;;;;;;5049373;28;20575;-50
2022/04/07 12:24:23;;;;;;;13.93;1.60;;;10.80;99.90;;;;;;5034309;28;20037;-51
2022/04/07 12:26:54;;;;;;;8.50;0.73;;;10.80;99.90;;;;;;5028892;28;20045;-52
2022/04/07 12:29:21;;;;;;;8.60;1.40;;;10.80;99.90;;;;;;5029602;28;20273;-50
2022/04/07 12:31:56;;;;;;;11.30;1.50;;;10.80;99.80;;;;;;5032994;28;20490;-50
2022/04/07 12:34:22;;;;;;;12.82;1.67;;;10.80;99.90;;;;;;5045522;28;20052;-52
2022/04/07 12:36:47;;;;;;;11.60;2.23;;;10.70;99.90;;;;;;5051231;28;20048;-50
2022/04/07 12:39:17;;;;;;;10.20;1.77;;;10.70;99.90;;;;;;5050706;28;20041;-50
2022/04/07 12:41:54;;;;;;;11.45;2.10;;;10.60;99.80;;;;;;5036490;28;20056;-49
2022/04/07 12:44:43;;;;;;;;;;;10.50;99.50;;;;;;5034224;28;20046;-50
2022/04/07 12:47:14;;;;;;;9.98;2.05;;;10.50;99.90;;;;;;5032703;28;19952;-50
2022/04/07 12:49:40;;;;;;;12.80;2.00;;;10.60;99.90;;;;;;5046095;28;20048;-51
2022/04/07 12:52:19;;;;;;;10.85;0.98;;;10.70;99.90;;;;;;5052671;28;20047;-51
2022/04/07 12:54:55;;;;;;;11.70;2.00;;;10.80;99.90;;;;;;5050487;28;20047;-51